sensor_id;sensor_type;location;lat;lon;timestamp;P1;durP1;ratioP1;P2;durP2;ratioP2
1164;SDS011;571;50.930;6.926;2023-07-16T02:47:38;1.70;;;1.60;;
1164;SDS011;571;50.930;6.926;2023-07-16T02:50:05;5.87;;;2.33;;
1164;SDS011;571;50.930;6.926;2023-07-16T02:52:33;1.90;;;1.50;;
1164;SDS011;571;50.930;6.926;2023-07-16T02:54:59;2.93;;;1.83;;
1164;SDS011;571;50.930;6.926;2023-07-16T02:57:26;2.23;;;1.60;;
1164;SDS011;571;50.930;6.926;2023-07-16T02:59:53;2.07;;;1.43;;
1164;SDS011;571;50.930;6.926;2023-07-16T03:02:19;3.47;;;1.60;;
1164;SDS011;571;50.930;6.926;2023-07-16T03:04:47;6.10;;;2.07;;
1164;SDS011;571;50.930;6.926;2023-07-16T03:07:14;4.73;;;1.90;;
1164;SDS011;571;50.930;6.926;2023-07-16T03:09:41;4.57;;;1.90;;
1164;SDS011;571;50.930;6.926;2023-07-16T03:12:09;4.43;;;1.63;;
1164;SDS011;571;50.930;6.926;2023-07-16T03:14:41;4.23;;;1.90;;
1164;SDS011;571;50.930;6.926;2023-07-16T03:17:10;2.50;;;1.80;;
1164;SDS011;571;50.930;6.926;2023-07-16T03:19:38;3.10;;;1.90;;
1164;SDS011;571;50.930;6.926;2023-07-16T03:22:09;2.57;;;1.53;;
1164;SDS011;571;50.930;6.926;2023-07-16T03:24:37;9.50;;;3.10;;
1164;SDS011;571;50.930;6.926;2023-07-16T03:27:08;3.70;;;1.87;;
1164;SDS011;571;50.930;6.926;2023-07-16T03:29:37;2.73;;;1.30;;
1164;SDS011;571;50.930;6.926;2023-07-16T03:32:05;3.13;;;1.50;;
1164;SDS011;571;50.930;6.926;2023-07-16T03:34:36;7.77;;;2.07;;
1164;SDS011;571;50.930;6.926;2023-07-16T03:37:12;4.07;;;2.33;;
1164;SDS011;571;50.930;6.926;2023-07-16T03:39:40;3.50;;;1.80;;
1164;SDS011;571;50.930;6.926;2023-07-16T03:42:10;3.77;;;1.80;;
1164;SDS011;571;50.930;6.926;2023-07-16T03:44:41;2.00;;;1.63;;
1164;SDS011;571;50.930;6.926;2023-07-16T04:07:56;3.17;;;1.80;;
1164;SDS011;571;50.930;6.926;2023-07-16T04:10:36;4.00;;;1.57;;
1164;SDS011;571;50.930;6.926;2023-07-16T04:13:03;5.50;;;1.90;;
1164;SDS011;571;50.930;6.926;2023-07-16T04:15:29;2.80;;;2.00;;
1164;SDS011;571;50.930;6.926;2023-07-16T04:17:56;3.70;;;2.30;;
1164;SDS011;571;50.930;6.926;2023-07-16T04:20:24;2.70;;;1.83;;
1164;SDS011;571;50.930;6.926;2023-07-16T04:22:51;4.27;;;2.20;;
1164;SDS011;571;50.930;6.926;2023-07-16T04:25:18;2.67;;;1.57;;
1164;SDS011;571;50.930;6.926;2023-07-16T04:27:44;2.77;;;2.00;;
1164;SDS011;571;50.930;6.926;2023-07-16T04:30:11;2.23;;;1.90;;
1164;SDS011;571;50.930;6.926;2023-07-16T04:32:41;5.97;;;2.30;;
1164;SDS011;571;50.930;6.926;2023-07-16T04:35:10;4.23;;;2.23;;
1164;SDS011;571;50.930;6.926;2023-07-16T04:37:42;4.63;;;2.10;;
1164;SDS011;571;50.930;6.926;2023-07-16T04:40:10;2.50;;;1.90;;
1164;SDS011;571;50.930;6.926;2023-07-16T04:42:40;3.33;;;1.90;;
1164;SDS011;571;50.930;6.926;2023-07-16T04:45:10;3.30;;;2.23;;
1164;SDS011;571;50.930;6.926;2023-07-16T04:47:44;6.73;;;2.40;;
1164;SDS011;571;50.930;6.926;2023-07-16T04:50:13;6.07;;;2.40;;
1164;SDS011;571;50.930;6.926;2023-07-16T04:52:50;4.10;;;1.93;;
1164;SDS011;571;50.930;6.926;2023-07-16T05:08:55;3.20;;;2.13;;
1164;SDS011;571;50.930;6.926;2023-07-16T05:11:41;5.60;;;2.10;;
1164;SDS011;571;50.930;6.926;2023-07-16T05:14:11;3.90;;;2.30;;
1164;SDS011;571;50.930;6.926;2023-07-16T05:16:40;5.67;;;2.60;;
1164;SDS011;571;50.930;6.926;2023-07-16T05:19:09;3.73;;;2.30;;
1164;SDS011;571;50.930;6.926;2023-07-16T05:21:59;5.00;;;2.93;;
1164;SDS011;571;50.930;6.926;2023-07-16T05:28:45;7.90;;;2.90;;
1164;SDS011;571;50.930;6.926;2023-07-16T05:32:06;5.70;;;2.60;;
1164;SDS011;571;50.930;6.926;2023-07-16T05:35:59;7.53;;;3.10;;
1164;SDS011;571;50.930;6.926;2023-07-16T05:48:53;3.90;;;2.70;;
1164;SDS011;571;50.930;6.926;2023-07-16T05:59:47;7.70;;;3.03;;
1164;SDS011;571;50.930;6.926;2023-07-16T06:56:07;8.50;;;4.07;;
1164;SDS011;571;50.930;6.926;2023-07-16T07:03:03;9.10;;;3.87;;
1164;SDS011;571;50.930;6.926;2023-07-16T07:37:08;10.73;;;3.83;;
1164;SDS011;571;50.930;6.926;2023-07-16T07:40:19;6.70;;;4.40;;
1164;SDS011;571;50.930;6.926;2023-07-16T07:47:15;5.83;;;4.13;;
1164;SDS011;571;50.930;6.926;2023-07-16T07:50:32;4.60;;;3.30;;
1164;SDS011;571;50.930;6.926;2023-07-16T08:10:28;6.40;;;4.20;;
1164;SDS011;571;50.930;6.926;2023-07-16T08:16:56;4.47;;;3.53;;
1164;SDS011;571;50.930;6.926;2023-07-16T08:22:31;6.93;;;4.67;;
1164;SDS011;571;50.930;6.926;2023-07-16T08:42:22;5.07;;;4.43;;
1164;SDS011;571;50.930;6.926;2023-07-16T08:53:04;5.70;;;4.37;;
1164;SDS011;571;50.930;6.926;2023-07-16T08:56:05;8.50;;;4.40;;
1164;SDS011;571;50.930;6.926;2023-07-16T09:09:11;5.00;;;3.57;;
1164;SDS011;571;50.930;6.926;2023-07-16T09:15:50;5.90;;;3.40;;
1164;SDS011;571;50.930;6.926;2023-07-16T09:29:24;5.40;;;3.27;;
1164;SDS011;571;50.930;6.926;2023-07-16T09:35:35;3.97;;;3.33;;
1164;SDS011;571;50.930;6.926;2023-07-16T09:36:31;3.80;;;2.53;;
1164;SDS011;571;50.930;6.926;2023-07-16T09:43:51;4.80;;;3.80;;
1164;SDS011;571;50.930;6.926;2023-07-16T09:58:19;4.33;;;2.90;;
1164;SDS011;571;50.930;6.926;2023-07-16T10:01:03;6.20;;;3.30;;
1164;SDS011;571;50.930;6.926;2023-07-16T10:21:13;6.33;;;3.50;;
1164;SDS011;571;50.930;6.926;2023-07-16T10:27:43;5.67;;;2.73;;
1164;SDS011;571;50.930;6.926;2023-07-16T10:58:36;8.57;;;3.50;;
1164;SDS011;571;50.930;6.926;2023-07-16T11:04:13;4.20;;;2.60;;
1164;SDS011;571;50.930;6.926;2023-07-16T11:07:59;4.70;;;2.80;;
1164;SDS011;571;50.930;6.926;2023-07-16T11:14:52;3.93;;;2.73;;
1164;SDS011;571;50.930;6.926;2023-07-16T11:21:25;3.87;;;2.70;;
1164;SDS011;571;50.930;6.926;2023-07-16T11:27:20;4.37;;;3.00;;
1164;SDS011;571;50.930;6.926;2023-07-16T11:30:25;4.53;;;2.53;;
1164;SDS011;571;50.930;6.926;2023-07-16T11:36:48;5.90;;;3.07;;
1164;SDS011;571;50.930;6.926;2023-07-16T11:46:50;3.13;;;2.60;;
1164;SDS011;571;50.930;6.926;2023-07-16T11:50:23;4.73;;;2.87;;
1164;SDS011;571;50.930;6.926;2023-07-16T11:59:39;3.47;;;2.43;;
1164;SDS011;571;50.930;6.926;2023-07-16T12:03:07;2.77;;;2.57;;
1164;SDS011;571;50.930;6.926;2023-07-16T12:09:36;3.40;;;2.40;;
1164;SDS011;571;50.930;6.926;2023-07-16T12:16:11;5.00;;;2.33;;
1164;SDS011;571;50.930;6.926;2023-07-16T12:25:47;2.77;;;2.47;;
1164;SDS011;571;50.930;6.926;2023-07-16T12:29:10;4.50;;;2.77;;
1164;SDS011;571;50.930;6.926;2023-07-16T12:32:08;3.40;;;2.80;;
1164;SDS011;571;50.930;6.926;2023-07-16T12:35:14;4.80;;;2.67;;
1164;SDS011;571;50.930;6.926;2023-07-16T12:38:21;3.10;;;2.67;;
1164;SDS011;571;50.930;6.926;2023-07-16T12:44:44;2.80;;;2.50;;
1164;SDS011;571;50.930;6.926;2023-07-16T12:47:45;3.70;;;2.70;;
1164;SDS011;571;50.930;6.926;2023-07-16T12:50:48;3.70;;;3.20;;
1164;SDS011;571;50.930;6.926;2023-07-16T12:54:10;2.63;;;2.43;;
1164;SDS011;571;50.930;6.926;2023-07-16T12:57:08;5.20;;;2.53;;
1164;SDS011;571;50.930;6.926;2023-07-16T13:03:57;4.33;;;2.77;;
1164;SDS011;571;50.930;6.926;2023-07-16T13:06:49;4.10;;;2.70;;
1164;SDS011;571;50.930;6.926;2023-07-16T13:09:23;4.63;;;3.20;;
1164;SDS011;571;50.930;6.926;2023-07-16T13:12:47;7.83;;;3.60;;
1164;SDS011;571;50.930;6.926;2023-07-16T13:15:33;5.37;;;3.03;;
1164;SDS011;571;50.930;6.926;2023-07-16T13:18:10;5.43;;;3.67;;
1164;SDS011;571;50.930;6.926;2023-07-16T13:21:04;4.30;;;3.10;;
1164;SDS011;571;50.930;6.926;2023-07-16T13:24:20;3.73;;;2.60;;
1164;SDS011;571;50.930;6.926;2023-07-16T13:28:17;4.90;;;4.40;;
1164;SDS011;571;50.930;6.926;2023-07-16T13:31:15;3.70;;;3.30;;
1164;SDS011;571;50.930;6.926;2023-07-16T13:34:32;3.93;;;3.07;;
1164;SDS011;571;50.930;6.926;2023-07-16T13:37:43;6.60;;;3.80;;
1164;SDS011;571;50.930;6.926;2023-07-16T13:40:51;4.73;;;3.50;;
1164;SDS011;571;50.930;6.926;2023-07-16T13:50:05;5.73;;;3.33;;
1164;SDS011;571;50.930;6.926;2023-07-16T13:53:19;3.83;;;3.43;;
1164;SDS011;571;50.930;6.926;2023-07-16T13:56:38;5.40;;;3.40;;
1164;SDS011;571;50.930;6.926;2023-07-16T13:59:09;5.73;;;2.80;;
1164;SDS011;571;50.930;6.926;2023-07-16T14:02:05;3.50;;;3.07;;
1164;SDS011;571;50.930;6.926;2023-07-16T14:07:59;6.40;;;4.00;;
1164;SDS011;571;50.930;6.926;2023-07-16T14:11:02;4.10;;;2.70;;
1164;SDS011;571;50.930;6.926;2023-07-16T14:13:54;3.90;;;3.00;;
1164;SDS011;571;50.930;6.926;2023-07-16T14:16:45;4.00;;;3.00;;
1164;SDS011;571;50.930;6.926;2023-07-16T14:20:54;4.77;;;2.90;;
1164;SDS011;571;50.930;6.926;2023-07-16T14:29:52;3.37;;;2.80;;
1164;SDS011;571;50.930;6.926;2023-07-16T14:35:43;3.43;;;3.10;;
1164;SDS011;571;50.930;6.926;2023-07-16T14:42:02;2.93;;;2.73;;
1164;SDS011;571;50.930;6.926;2023-07-16T14:44:58;4.60;;;2.60;;
1164;SDS011;571;50.930;6.926;2023-07-16T14:47:57;4.47;;;2.33;;
1164;SDS011;571;50.930;6.926;2023-07-16T14:50:56;5.60;;;2.97;;
1164;SDS011;571;50.930;6.926;2023-07-16T14:53:34;3.30;;;2.50;;
1164;SDS011;571;50.930;6.926;2023-07-16T15:03:11;3.90;;;3.00;;
1164;SDS011;571;50.930;6.926;2023-07-16T15:05:46;4.20;;;2.77;;
1164;SDS011;571;50.930;6.926;2023-07-16T15:08:22;5.13;;;2.90;;
1164;SDS011;571;50.930;6.926;2023-07-16T15:11:06;4.20;;;3.30;;
1164;SDS011;571;50.930;6.926;2023-07-16T15:13:58;4.73;;;2.90;;
1164;SDS011;571;50.930;6.926;2023-07-16T15:16:30;2.57;;;2.37;;
1164;SDS011;571;50.930;6.926;2023-07-16T15:22:22;4.60;;;3.07;;
1164;SDS011;571;50.930;6.926;2023-07-16T15:28:12;5.43;;;2.53;;
1164;SDS011;571;50.930;6.926;2023-07-16T15:34:47;4.17;;;2.70;;
1164;SDS011;571;50.930;6.926;2023-07-16T15:43:42;4.83;;;2.80;;
1164;SDS011;571;50.930;6.926;2023-07-16T15:46:49;4.03;;;2.43;;
1164;SDS011;571;50.930;6.926;2023-07-16T15:49:34;3.17;;;2.83;;
1164;SDS011;571;50.930;6.926;2023-07-16T15:52:12;2.80;;;2.60;;
1164;SDS011;571;50.930;6.926;2023-07-16T15:55:12;4.50;;;3.40;;
1164;SDS011;571;50.930;6.926;2023-07-16T15:58:05;5.30;;;3.20;;
1164;SDS011;571;50.930;6.926;2023-07-16T16:00:56;4.90;;;2.67;;
1164;SDS011;571;50.930;6.926;2023-07-16T16:03:35;4.53;;;2.57;;
1164;SDS011;571;50.930;6.926;2023-07-16T16:06:25;3.20;;;2.77;;
1164;SDS011;571;50.930;6.926;2023-07-16T16:09:06;3.07;;;2.60;;
1164;SDS011;571;50.930;6.926;2023-07-16T16:11:42;3.80;;;2.93;;
1164;SDS011;571;50.930;6.926;2023-07-16T16:14:28;6.27;;;3.37;;
1164;SDS011;571;50.930;6.926;2023-07-16T16:17:12;5.30;;;3.20;;
1164;SDS011;571;50.930;6.926;2023-07-16T16:23:16;3.83;;;3.27;;
1164;SDS011;571;50.930;6.926;2023-07-16T16:25:53;3.70;;;3.40;;
1164;SDS011;571;50.930;6.926;2023-07-16T16:28:23;6.63;;;3.40;;
1164;SDS011;571;50.930;6.926;2023-07-16T16:31:04;2.83;;;2.50;;
1164;SDS011;571;50.930;6.926;2023-07-16T16:33:58;4.27;;;3.87;;
1164;SDS011;571;50.930;6.926;2023-07-16T16:37:22;3.40;;;3.00;;
1164;SDS011;571;50.930;6.926;2023-07-16T16:41:17;4.13;;;2.97;;
1164;SDS011;571;50.930;6.926;2023-07-16T16:46:27;4.20;;;3.07;;
1164;SDS011;571;50.930;6.926;2023-07-16T16:51:51;5.47;;;2.97;;
1164;SDS011;571;50.930;6.926;2023-07-16T16:54:25;6.13;;;3.07;;
1164;SDS011;571;50.930;6.926;2023-07-16T16:57:06;5.63;;;2.80;;
1164;SDS011;571;50.930;6.926;2023-07-16T16:59:51;5.70;;;2.80;;
1164;SDS011;571;50.930;6.926;2023-07-16T17:05:53;4.97;;;3.13;;
1164;SDS011;571;50.930;6.926;2023-07-16T17:08:36;5.23;;;2.87;;
1164;SDS011;571;50.930;6.926;2023-07-16T17:11:52;5.10;;;3.47;;
1164;SDS011;571;50.930;6.926;2023-07-16T17:20:25;7.23;;;2.90;;
1164;SDS011;571;50.930;6.926;2023-07-16T17:23:09;7.77;;;3.13;;
1164;SDS011;571;50.930;6.926;2023-07-16T17:25:49;7.43;;;3.67;;
1164;SDS011;571;50.930;6.926;2023-07-16T17:28:43;5.20;;;3.87;;
1164;SDS011;571;50.930;6.926;2023-07-16T17:31:33;3.67;;;3.30;;
1164;SDS011;571;50.930;6.926;2023-07-16T17:34:18;5.97;;;3.70;;
1164;SDS011;571;50.930;6.926;2023-07-16T17:46:09;6.70;;;3.90;;
1164;SDS011;571;50.930;6.926;2023-07-16T17:48:59;5.90;;;2.70;;
1164;SDS011;571;50.930;6.926;2023-07-16T17:51:56;3.40;;;2.13;;
1164;SDS011;571;50.930;6.926;2023-07-16T17:54:45;7.43;;;3.00;;
1164;SDS011;571;50.930;6.926;2023-07-16T17:58:07;8.50;;;3.70;;
1164;SDS011;571;50.930;6.926;2023-07-16T18:00:46;4.43;;;3.20;;
1164;SDS011;571;50.930;6.926;2023-07-16T18:03:30;3.73;;;3.17;;
1164;SDS011;571;50.930;6.926;2023-07-16T18:06:23;10.23;;;3.20;;
1164;SDS011;571;50.930;6.926;2023-07-16T18:09:09;5.20;;;3.03;;
1164;SDS011;571;50.930;6.926;2023-07-16T18:11:51;6.20;;;2.50;;
1164;SDS011;571;50.930;6.926;2023-07-16T18:14:31;6.13;;;2.73;;
1164;SDS011;571;50.930;6.926;2023-07-16T18:17:03;5.90;;;3.27;;
1164;SDS011;571;50.930;6.926;2023-07-16T18:19:34;6.00;;;3.30;;
1164;SDS011;571;50.930;6.926;2023-07-16T18:22:11;4.10;;;3.17;;
1164;SDS011;571;50.930;6.926;2023-07-16T18:25:25;4.70;;;2.97;;
1164;SDS011;571;50.930;6.926;2023-07-16T18:27:57;5.20;;;3.43;;
1164;SDS011;571;50.930;6.926;2023-07-16T18:31:04;4.77;;;3.40;;
1164;SDS011;571;50.930;6.926;2023-07-16T18:33:50;3.90;;;3.27;;
1164;SDS011;571;50.930;6.926;2023-07-16T18:36:46;5.17;;;3.17;;
1164;SDS011;571;50.930;6.926;2023-07-16T18:39:53;4.33;;;2.80;;
1164;SDS011;571;50.930;6.926;2023-07-16T18:42:35;5.07;;;3.17;;
1164;SDS011;571;50.930;6.926;2023-07-16T18:45:26;4.63;;;3.13;;
1164;SDS011;571;50.930;6.926;2023-07-16T18:48:20;6.10;;;3.73;;
1164;SDS011;571;50.930;6.926;2023-07-16T18:51:29;5.43;;;3.47;;
1164;SDS011;571;50.930;6.926;2023-07-16T18:54:21;4.17;;;3.10;;
1164;SDS011;571;50.930;6.926;2023-07-16T18:56:59;4.90;;;3.50;;
1164;SDS011;571;50.930;6.926;2023-07-16T19:00:09;4.50;;;3.90;;
1164;SDS011;571;50.930;6.926;2023-07-16T19:05:48;7.30;;;3.40;;
1164;SDS011;571;50.930;6.926;2023-07-16T19:08:46;4.93;;;3.53;;
1164;SDS011;571;50.930;6.926;2023-07-16T19:11:23;4.97;;;3.23;;
1164;SDS011;571;50.930;6.926;2023-07-16T19:14:04;5.20;;;3.20;;
1164;SDS011;571;50.930;6.926;2023-07-16T19:28:59;6.97;;;3.07;;
1164;SDS011;571;50.930;6.926;2023-07-16T19:32:02;4.77;;;2.80;;
1164;SDS011;571;50.930;6.926;2023-07-16T19:34:45;4.37;;;2.70;;
1164;SDS011;571;50.930;6.926;2023-07-16T19:37:21;7.33;;;3.40;;
1164;SDS011;571;50.930;6.926;2023-07-16T19:43:04;5.67;;;3.77;;
1164;SDS011;571;50.930;6.926;2023-07-16T19:45:49;5.63;;;2.60;;
1164;SDS011;571;50.930;6.926;2023-07-16T19:58:09;6.13;;;3.30;;
1164;SDS011;571;50.930;6.926;2023-07-16T20:00:41;3.50;;;3.20;;
1164;SDS011;571;50.930;6.926;2023-07-16T20:17:10;7.10;;;3.90;;
1164;SDS011;571;50.930;6.926;2023-07-16T20:22:37;4.30;;;3.07;;
1164;SDS011;571;50.930;6.926;2023-07-16T20:25:35;7.37;;;4.30;;
1164;SDS011;571;50.930;6.926;2023-07-16T20:28:24;5.90;;;3.00;;
1164;SDS011;571;50.930;6.926;2023-07-16T20:34:36;5.50;;;3.13;;
1164;SDS011;571;50.930;6.926;2023-07-16T20:37:34;4.10;;;3.50;;
1164;SDS011;571;50.930;6.926;2023-07-16T20:43:54;5.87;;;3.17;;
1164;SDS011;571;50.930;6.926;2023-07-16T20:46:52;5.97;;;3.13;;
1164;SDS011;571;50.930;6.926;2023-07-16T20:53:00;8.13;;;2.90;;
1164;SDS011;571;50.930;6.926;2023-07-16T21:01:40;4.83;;;2.60;;
1164;SDS011;571;50.930;6.926;2023-07-16T21:04:24;6.03;;;3.13;;
1164;SDS011;571;50.930;6.926;2023-07-16T21:10:24;6.07;;;3.10;;
1164;SDS011;571;50.930;6.926;2023-07-16T21:16:49;5.40;;;3.30;;
1164;SDS011;571;50.930;6.926;2023-07-16T21:19:48;6.10;;;3.10;;
1164;SDS011;571;50.930;6.926;2023-07-16T21:23:11;5.10;;;2.77;;
1164;SDS011;571;50.930;6.926;2023-07-16T21:26:13;8.13;;;3.33;;
1164;SDS011;571;50.930;6.926;2023-07-16T21:39:09;7.80;;;2.83;;
1164;SDS011;571;50.930;6.926;2023-07-16T21:42:28;4.90;;;2.90;;
1164;SDS011;571;50.930;6.926;2023-07-16T21:59:21;6.90;;;3.20;;
